createdAt,value
2018-07-03T00:01:51.879Z,97309.00
2018-07-03T00:04:33.599Z,97318.00
2018-07-03T00:07:14.897Z,97325.00
2018-07-03T00:09:57.421Z,97321.00
2018-07-03T00:12:38.847Z,97317.00
2018-07-03T00:15:20.216Z,97317.00
2018-07-03T00:18:02.248Z,97317.00
2018-07-03T00:20:43.631Z,97315.00
2018-07-03T00:23:24.952Z,97317.00
2018-07-03T00:26:06.523Z,97312.00
2018-07-03T00:28:48.072Z,97315.00
2018-07-03T00:31:30.225Z,97315.00
2018-07-03T00:34:11.563Z,97315.00
2018-07-03T00:36:53.036Z,97310.00
2018-07-03T00:39:34.255Z,97304.00
2018-07-03T00:42:15.661Z,97302.00
2018-07-03T00:44:57.798Z,97309.00
2018-07-03T00:47:39.372Z,97307.00
2018-07-03T00:50:20.846Z,97305.00
2018-07-03T00:53:02.228Z,97292.00
2018-07-03T00:55:43.621Z,97301.00
2018-07-03T00:58:25.126Z,97302.00
2018-07-03T01:01:06.630Z,97293.00
2018-07-03T01:03:48.728Z,97300.00
2018-07-03T01:06:30.893Z,97301.00
2018-07-03T01:09:12.112Z,97295.00
2018-07-03T01:11:53.500Z,97289.00
2018-07-03T01:14:34.836Z,97293.00
2018-07-03T01:17:16.325Z,97289.00
2018-07-03T01:19:59.383Z,97291.00
2018-07-03T01:22:40.767Z,97281.00
2018-07-03T01:25:22.140Z,97287.00
2018-07-03T01:28:03.658Z,97295.00
2018-07-03T01:30:45.308Z,97283.00
2018-07-03T01:33:27.315Z,97284.00
2018-07-03T01:36:08.847Z,97280.00
2018-07-03T01:38:50.195Z,97282.00
2018-07-03T01:41:31.799Z,97284.00
2018-07-03T01:44:13.185Z,97295.00
2018-07-03T01:46:54.588Z,97293.00
2018-07-03T01:49:36.167Z,97292.00
2018-07-03T01:52:17.909Z,97288.00
2018-07-03T01:54:59.978Z,97292.00
2018-07-03T01:57:41.322Z,97290.00
2018-07-03T02:03:44.916Z,97289.00
2018-07-03T02:06:26.792Z,97295.00
2018-07-03T02:09:09.980Z,97284.00
2018-07-03T02:11:52.144Z,97278.00
2018-07-03T02:14:33.644Z,97289.00
2018-07-03T02:17:15.691Z,97293.00
2018-07-03T02:19:56.879Z,97296.00
2018-07-03T02:22:38.632Z,97291.00
2018-07-03T02:25:19.964Z,97289.00
2018-07-03T02:28:01.256Z,97299.00
2018-07-03T02:30:42.618Z,97290.00
2018-07-03T02:33:23.983Z,97290.00
2018-07-03T02:36:05.464Z,97302.00
2018-07-03T02:38:47.039Z,97294.00
2018-07-03T02:41:28.368Z,97288.00
2018-07-03T02:44:09.648Z,97295.00
2018-07-03T02:46:51.230Z,97290.00
2018-07-03T02:49:33.628Z,97296.00
2018-07-03T02:52:15.122Z,97297.00
2018-07-03T02:54:57.626Z,97298.00
2018-07-03T02:57:39.120Z,97294.00
2018-07-03T03:00:25.988Z,97288.00
2018-07-03T03:03:07.434Z,97291.00
2018-07-03T03:05:48.856Z,97287.00
2018-07-03T03:08:31.379Z,97288.00
2018-07-03T03:11:16.418Z,97286.00
2018-07-03T03:13:57.748Z,97288.00
2018-07-03T03:16:39.082Z,97280.00
2018-07-03T03:19:21.231Z,97279.00
2018-07-03T03:22:03.344Z,97281.00
2018-07-03T03:24:45.026Z,97288.00
2018-07-03T03:27:26.709Z,97287.00
2018-07-03T03:30:09.240Z,97286.00
2018-07-03T03:32:51.099Z,97287.00
2018-07-03T03:35:32.773Z,97293.00
2018-07-03T03:38:14.196Z,97292.00
2018-07-03T03:40:56.089Z,97286.00
2018-07-03T03:43:37.656Z,97289.00
2018-07-03T03:46:19.155Z,97280.00
2018-07-03T03:49:00.739Z,97294.00
2018-07-03T03:51:42.141Z,97290.00
2018-07-03T03:54:23.907Z,97297.00
2018-07-03T03:57:06.309Z,97300.00
2018-07-03T03:59:47.484Z,97294.00
2018-07-03T04:02:28.816Z,97294.00
2018-07-03T04:05:10.165Z,97301.00
2018-07-03T04:07:52.109Z,97295.00
2018-07-03T04:10:33.742Z,97295.00
2018-07-03T04:13:14.975Z,97291.00
2018-07-03T04:15:56.836Z,97299.00
2018-07-03T04:18:38.271Z,97293.00
2018-07-03T04:21:21.016Z,97295.00
2018-07-03T04:24:02.417Z,97289.00
2018-07-03T04:26:43.808Z,97293.00
2018-07-03T04:29:26.758Z,97287.00
2018-07-03T04:32:08.171Z,97295.00
2018-07-03T04:34:49.512Z,97291.00
2018-07-03T04:37:31.185Z,97290.00
2018-07-03T04:40:12.584Z,97299.00
2018-07-03T04:42:55.491Z,97304.00
2018-07-03T04:45:40.619Z,97300.00
2018-07-03T04:48:22.588Z,97309.00
2018-07-03T04:51:04.034Z,97316.00
2018-07-03T04:53:45.235Z,97313.00
2018-07-03T04:56:28.383Z,97313.00
2018-07-03T04:59:10.836Z,97317.00
2018-07-03T05:01:52.701Z,97320.00
2018-07-03T05:04:34.041Z,97326.00
2018-07-03T05:07:15.458Z,97318.00
2018-07-03T05:09:56.773Z,97316.00
2018-07-03T05:12:38.519Z,97329.00
2018-07-03T05:15:21.119Z,97316.00
2018-07-03T05:18:02.628Z,97325.00
2018-07-03T05:20:44.287Z,97321.00
2018-07-03T05:23:26.787Z,97318.00
2018-07-03T05:26:08.483Z,97330.00
2018-07-03T05:28:49.924Z,97331.00
2018-07-03T05:31:31.703Z,97325.00
2018-07-03T05:34:13.200Z,97328.00
2018-07-03T05:36:55.021Z,97331.00
2018-07-03T05:39:36.448Z,97343.00
2018-07-03T05:42:17.939Z,97346.00
2018-07-03T05:44:59.920Z,97348.00
2018-07-03T05:47:41.449Z,97344.00
2018-07-03T05:50:23.961Z,97346.00
2018-07-03T05:53:05.952Z,97344.00
2018-07-03T05:55:47.464Z,97345.00
2018-07-03T05:58:28.743Z,97350.00
2018-07-03T06:01:10.461Z,97341.00
2018-07-03T06:03:52.956Z,97352.00
2018-07-03T06:06:34.518Z,97351.00
2018-07-03T06:09:16.702Z,97359.00
2018-07-03T06:11:58.233Z,97361.00
2018-07-03T06:14:39.762Z,97354.00
2018-07-03T06:17:22.080Z,97356.00
2018-07-03T06:20:04.375Z,97356.00
2018-07-03T06:22:49.671Z,97353.00
2018-07-03T06:25:31.035Z,97357.00
2018-07-03T06:28:12.378Z,97362.00
2018-07-03T06:30:58.738Z,97363.00
2018-07-03T06:33:40.236Z,97366.00
2018-07-03T06:36:23.844Z,97360.00
2018-07-03T06:39:11.257Z,97358.00
2018-07-03T06:41:54.052Z,97364.00
2018-07-03T06:44:36.436Z,97359.00
2018-07-03T06:47:18.632Z,97365.00
2018-07-03T06:50:02.591Z,97358.00
2018-07-03T06:52:44.301Z,97363.00
2018-07-03T06:55:26.163Z,97357.00
2018-07-03T06:58:07.487Z,97363.00
2018-07-03T07:00:51.027Z,97365.00
2018-07-03T07:03:32.325Z,97358.00
2018-07-03T07:06:14.665Z,97360.00
2018-07-03T07:08:56.795Z,97364.00
2018-07-03T07:11:38.171Z,97359.00
2018-07-03T07:14:20.090Z,97362.00
2018-07-03T07:17:01.507Z,97361.00
2018-07-03T07:19:42.825Z,97354.00
2018-07-03T07:22:25.025Z,97354.00
2018-07-03T07:25:06.448Z,97356.00
2018-07-03T07:27:47.864Z,97352.00
2018-07-03T07:30:29.296Z,97356.00
2018-07-03T07:33:10.727Z,97350.00
2018-07-03T07:35:54.183Z,97356.00
2018-07-03T07:38:35.563Z,97357.00
2018-07-03T07:41:17.006Z,97358.00
2018-07-03T07:43:58.546Z,97357.00
2018-07-03T07:46:39.844Z,97357.00
2018-07-03T07:49:23.873Z,97367.00
2018-07-03T07:52:08.212Z,97364.00
2018-07-03T07:54:49.769Z,97362.00
2018-07-03T07:57:31.419Z,97363.00
2018-07-03T08:00:14.500Z,97373.00
2018-07-03T08:02:58.580Z,97375.00
2018-07-03T08:05:39.902Z,97372.00
2018-07-03T08:08:22.174Z,97369.00
2018-07-03T08:11:03.510Z,97369.00
2018-07-03T08:13:44.909Z,97375.00
2018-07-03T08:16:27.212Z,97378.00
2018-07-03T08:19:08.676Z,97367.00
2018-07-03T08:21:51.010Z,97376.00
2018-07-03T08:24:32.950Z,97378.00
2018-07-03T08:27:14.877Z,97384.00
2018-07-03T08:29:56.737Z,97384.00
2018-07-03T08:32:39.322Z,97388.00
2018-07-03T08:35:21.025Z,97380.00
2018-07-03T08:38:02.376Z,97375.00
2018-07-03T08:40:44.591Z,97378.00
2018-07-03T08:43:27.247Z,97375.00
2018-07-03T08:46:09.051Z,97378.00
2018-07-03T08:48:52.137Z,97371.00
2018-07-03T08:51:33.490Z,97374.00
2018-07-03T08:54:15.819Z,97381.00
2018-07-03T08:56:57.401Z,97374.00
2018-07-03T08:59:38.997Z,97368.00
2018-07-03T09:02:20.938Z,97367.00
2018-07-03T09:05:02.390Z,97376.00
2018-07-03T09:07:43.793Z,97371.00
2018-07-03T09:10:26.117Z,97373.00
2018-07-03T09:13:08.209Z,97377.00
2018-07-03T09:15:49.601Z,97372.00
2018-07-03T09:18:31.938Z,97358.00
2018-07-03T09:21:13.334Z,97359.00
2018-07-03T09:23:56.553Z,97357.00
2018-07-03T09:26:57.619Z,97368.00
2018-07-03T09:29:39.397Z,97362.00
2018-07-03T09:32:21.352Z,97360.00
2018-07-03T09:35:02.953Z,97369.00
2018-07-03T09:37:44.324Z,97359.00
2018-07-03T09:40:27.451Z,97368.00
2018-07-03T09:43:08.968Z,97370.00
2018-07-03T09:45:51.496Z,97373.00
2018-07-03T09:48:32.985Z,97357.00
2018-07-03T09:51:14.416Z,97369.00
2018-07-03T09:53:57.421Z,97368.00
2018-07-03T09:56:38.699Z,97354.00
2018-07-03T09:59:20.029Z,97354.00
2018-07-03T10:02:01.848Z,97354.00
2018-07-03T10:04:43.413Z,97361.00
2018-07-03T10:07:25.315Z,97354.00
2018-07-03T10:10:06.768Z,97359.00
2018-07-03T10:12:48.797Z,97362.00
2018-07-03T10:15:30.281Z,97352.00
2018-07-03T10:18:11.664Z,97352.00
2018-07-03T10:20:54.390Z,97357.00
2018-07-03T10:23:35.685Z,97352.00
2018-07-03T10:26:17.033Z,97347.00
2018-07-03T10:28:59.595Z,97350.00
2018-07-03T10:31:41.403Z,97344.00
2018-07-03T10:34:24.880Z,97350.00
2018-07-03T10:37:06.372Z,97349.00
2018-07-03T10:39:47.664Z,97342.00
2018-07-03T10:42:29.462Z,97348.00
2018-07-03T10:45:10.885Z,97347.00
2018-07-03T10:47:56.702Z,97349.00
2018-07-03T10:50:38.130Z,97336.00
2018-07-03T10:53:20.221Z,97349.00
2018-07-03T10:56:01.887Z,97343.00
2018-07-03T10:58:43.341Z,97349.00
2018-07-03T11:01:27.469Z,97345.00
2018-07-03T11:04:08.869Z,97343.00
2018-07-03T11:06:50.380Z,97353.00
2018-07-03T11:09:32.485Z,97339.00
2018-07-03T11:12:16.924Z,97352.00
2018-07-03T11:14:59.074Z,97360.00
2018-07-03T11:17:40.856Z,97351.00
2018-07-03T11:20:23.313Z,97352.00
2018-07-03T11:23:04.819Z,97358.00
2018-07-03T11:25:47.673Z,97349.00
2018-07-03T11:28:31.711Z,97351.00
2018-07-03T11:31:13.919Z,97355.00
2018-07-03T11:33:56.209Z,97350.00
2018-07-03T11:36:37.821Z,97357.00
2018-07-03T11:39:20.004Z,97348.00
2018-07-03T11:42:01.701Z,97339.00
2018-07-03T11:44:43.074Z,97354.00
2018-07-03T11:47:25.473Z,97351.00
2018-07-03T11:50:07.657Z,97349.00
2018-07-03T11:52:49.829Z,97339.00
2018-07-03T11:55:31.768Z,97348.00
2018-07-03T11:58:13.200Z,97346.00
2018-07-03T12:00:56.050Z,97348.00
2018-07-03T12:03:38.503Z,97347.00
2018-07-03T12:06:21.860Z,97350.00
2018-07-03T12:09:05.676Z,97345.00
2018-07-03T12:11:47.993Z,97348.00
2018-07-03T12:14:29.965Z,97353.00
2018-07-03T12:17:11.287Z,97345.00
2018-07-03T12:19:54.643Z,97352.00
2018-07-03T12:22:36.450Z,97347.00
2018-07-03T12:25:17.937Z,97339.00
2018-07-03T12:27:59.924Z,97349.00
2018-07-03T12:30:42.038Z,97353.00
2018-07-03T12:33:24.381Z,97344.00
2018-07-03T12:36:08.111Z,97346.00
2018-07-03T12:38:52.520Z,97343.00
2018-07-03T12:41:39.499Z,97346.00
2018-07-03T12:44:21.743Z,97335.00
2018-07-03T12:47:03.148Z,97334.00
2018-07-03T12:51:31.827Z,97335.00
2018-07-03T12:54:14.447Z,97333.00
2018-07-03T12:56:56.548Z,97326.00
2018-07-03T12:59:38.027Z,97336.00
2018-07-03T13:02:19.440Z,97337.00
2018-07-03T13:05:02.211Z,97332.00
2018-07-03T13:07:44.502Z,97326.00
2018-07-03T13:10:26.745Z,97332.00
2018-07-03T13:13:08.137Z,97330.00
2018-07-03T13:15:49.903Z,97326.00
2018-07-03T13:18:32.417Z,97325.00
2018-07-03T13:21:16.500Z,97320.00
2018-07-03T13:23:58.158Z,97321.00
2018-07-03T13:26:40.031Z,97317.00
2018-07-03T13:29:27.788Z,97319.00
2018-07-03T13:32:09.199Z,97315.00
2018-07-03T13:34:51.561Z,97317.00
2018-07-03T13:37:33.897Z,97314.00
2018-07-03T13:40:16.257Z,97316.00
2018-07-03T13:42:57.774Z,97318.00
2018-07-03T13:45:40.095Z,97329.00
2018-07-03T13:48:22.465Z,97301.00
2018-07-03T13:51:05.072Z,97321.00
2018-07-03T13:53:51.789Z,97315.00
2018-07-03T13:56:33.443Z,97316.00
2018-07-03T13:59:15.473Z,97311.00
2018-07-03T14:01:59.596Z,97315.00
2018-07-03T14:04:41.463Z,97311.00
2018-07-03T14:07:24.427Z,97309.00
2018-07-03T14:10:05.835Z,97311.00
2018-07-03T14:12:56.139Z,97321.00
2018-07-03T14:15:37.791Z,97311.00
2018-07-03T14:18:25.066Z,97314.00
2018-07-03T14:21:06.493Z,97314.00
2018-07-03T14:23:48.852Z,97309.00
2018-07-03T14:26:30.207Z,97310.00
2018-07-03T14:29:11.556Z,97308.00
2018-07-03T14:31:55.422Z,97306.00
2018-07-03T14:34:36.834Z,97309.00
2018-07-03T14:37:18.321Z,97308.00
2018-07-03T14:39:59.832Z,97305.00
2018-07-03T14:42:41.553Z,97297.00
2018-07-03T14:45:24.696Z,97304.00
2018-07-03T14:48:06.991Z,97305.00
2018-07-03T14:50:49.213Z,97306.00
2018-07-03T14:53:31.541Z,97301.00
2018-07-03T14:56:13.968Z,97298.00
2018-07-03T14:58:56.173Z,97301.00
2018-07-03T15:01:38.372Z,97306.00
2018-07-03T15:04:21.711Z,97305.00
2018-07-03T15:07:04.309Z,97313.00
2018-07-03T15:09:45.780Z,97312.00
2018-07-03T15:12:27.268Z,97305.00
2018-07-03T15:15:08.622Z,97303.00
2018-07-03T15:17:51.644Z,97307.00
2018-07-03T15:20:34.744Z,97304.00
2018-07-03T15:23:16.134Z,97295.00
2018-07-03T15:25:58.006Z,97297.00
2018-07-03T15:28:39.553Z,97303.00
2018-07-03T15:31:21.552Z,97302.00
2018-07-03T15:34:06.328Z,97300.00
2018-07-03T15:36:47.877Z,97298.00
2018-07-03T15:39:31.630Z,97300.00
2018-07-03T15:42:14.648Z,97296.00
2018-07-03T15:45:14.857Z,97293.00
2018-07-03T15:47:56.645Z,97299.00
2018-07-03T15:50:37.913Z,97302.00
2018-07-03T15:53:20.272Z,97303.00
2018-07-03T15:56:01.659Z,97305.00
2018-07-03T15:58:43.804Z,97295.00
2018-07-03T16:01:26.160Z,97300.00
2018-07-03T16:05:27.420Z,97293.00
2018-07-03T16:09:16.561Z,97292.00
2018-07-03T16:11:57.980Z,97293.00
2018-07-03T16:14:40.288Z,97293.00
2018-07-03T16:17:22.351Z,97287.00
2018-07-03T16:20:10.284Z,97289.00
2018-07-03T16:22:55.465Z,97296.00
2018-07-03T16:25:36.893Z,97294.00
2018-07-03T16:28:18.708Z,97293.00
2018-07-03T16:31:02.020Z,97284.00
2018-07-03T16:33:43.540Z,97294.00
2018-07-03T16:36:25.286Z,97293.00
2018-07-03T16:39:11.144Z,97295.00
2018-07-03T16:45:06.348Z,97297.00
2018-07-03T16:47:47.798Z,97297.00
2018-07-03T16:50:29.422Z,97291.00
2018-07-03T16:53:10.804Z,97306.00
2018-07-03T16:55:53.848Z,97308.00
2018-07-03T16:58:37.878Z,97309.00
2018-07-03T17:01:19.776Z,97303.00
2018-07-03T17:04:01.761Z,97302.00
2018-07-03T17:06:43.277Z,97303.00
2018-07-03T17:09:26.687Z,97307.00
2018-07-03T17:12:09.241Z,97302.00
2018-07-03T17:14:51.391Z,97302.00
2018-07-03T17:17:32.817Z,97301.00
2018-07-03T17:20:18.113Z,97295.00
2018-07-03T17:22:59.692Z,97298.00
2018-07-03T17:25:42.331Z,97296.00
2018-07-03T17:28:28.864Z,97292.00
2018-07-03T17:31:10.236Z,97297.00
2018-07-03T17:33:52.586Z,97292.00
2018-07-03T17:36:35.241Z,97285.00
2018-07-03T17:39:18.894Z,97284.00
2018-07-03T17:42:19.393Z,97281.00
2018-07-03T17:46:07.576Z,97286.00
2018-07-03T17:48:50.271Z,97294.00
2018-07-03T17:51:32.337Z,97289.00
2018-07-03T17:54:14.220Z,97279.00
2018-07-03T17:56:58.808Z,97279.00
2018-07-03T17:59:41.999Z,97278.00
2018-07-03T18:02:25.487Z,97284.00
2018-07-03T18:05:07.978Z,97287.00
2018-07-03T18:07:51.420Z,97284.00
2018-07-03T18:10:33.618Z,97280.00
2018-07-03T18:13:15.343Z,97280.00
2018-07-03T18:15:57.832Z,97277.00
2018-07-03T18:18:39.688Z,97272.00
2018-07-03T18:21:22.392Z,97280.00
2018-07-03T18:24:04.044Z,97278.00
2018-07-03T18:26:46.131Z,97279.00
2018-07-03T18:29:27.632Z,97275.00
2018-07-03T18:32:09.061Z,97273.00
2018-07-03T18:34:54.284Z,97275.00
2018-07-03T18:37:36.729Z,97274.00
2018-07-03T18:40:18.187Z,97274.00
2018-07-03T18:42:59.981Z,97280.00
2018-07-03T18:45:41.501Z,97278.00
2018-07-03T18:48:24.271Z,97280.00
2018-07-03T18:51:05.767Z,97288.00
2018-07-03T18:53:48.144Z,97285.00
2018-07-03T18:56:31.608Z,97287.00
2018-07-03T18:59:13.826Z,97288.00
2018-07-03T19:01:57.693Z,97287.00
2018-07-03T19:04:42.783Z,97290.00
2018-07-03T19:07:25.803Z,97292.00
2018-07-03T19:10:08.048Z,97297.00
2018-07-03T19:12:50.302Z,97297.00
2018-07-03T19:15:31.886Z,97294.00
2018-07-03T19:18:15.053Z,97294.00
2018-07-03T19:20:57.275Z,97302.00
2018-07-03T19:23:40.008Z,97304.00
2018-07-03T19:26:23.201Z,97301.00
2018-07-03T19:29:04.932Z,97300.00
2018-07-03T19:31:46.975Z,97296.00
2018-07-03T19:34:28.991Z,97296.00
2018-07-03T19:37:10.726Z,97295.00
2018-07-03T19:39:56.352Z,97301.00
2018-07-03T19:42:51.384Z,97294.00
2018-07-03T19:45:32.728Z,97302.00
2018-07-03T19:48:18.071Z,97299.00
2018-07-03T19:50:59.573Z,97300.00
2018-07-03T19:53:41.389Z,97300.00
2018-07-03T19:56:24.120Z,97311.00
2018-07-03T19:59:06.132Z,97309.00
2018-07-03T20:01:48.855Z,97314.00
2018-07-03T20:04:32.993Z,97309.00
2018-07-03T20:07:15.564Z,97310.00
2018-07-03T20:09:58.492Z,97305.00
2018-07-03T20:12:41.125Z,97307.00
2018-07-03T20:15:24.355Z,97311.00
2018-07-03T20:18:06.160Z,97312.00
2018-07-03T20:20:51.259Z,97318.00
2018-07-03T20:23:34.268Z,97315.00
2018-07-03T20:26:28.251Z,97313.00
2018-07-03T20:29:11.536Z,97325.00
2018-07-03T20:31:54.209Z,97323.00
2018-07-03T20:34:38.147Z,97315.00
2018-07-03T20:37:19.881Z,97317.00
2018-07-03T20:40:01.376Z,97317.00
2018-07-03T20:42:43.035Z,97318.00
2018-07-03T20:45:25.121Z,97322.00
2018-07-03T20:48:08.589Z,97320.00
2018-07-03T20:50:51.336Z,97326.00
2018-07-03T20:53:33.038Z,97325.00
2018-07-03T20:56:16.111Z,97321.00
2018-07-03T20:58:57.670Z,97322.00
2018-07-03T21:01:39.304Z,97319.00
2018-07-03T21:04:24.304Z,97331.00
2018-07-03T21:07:06.363Z,97323.00
2018-07-03T21:09:48.416Z,97324.00
2018-07-03T21:12:30.952Z,97316.00
2018-07-03T21:15:12.879Z,97317.00
2018-07-03T21:17:55.983Z,97324.00
2018-07-03T21:20:38.405Z,97317.00
2018-07-03T21:23:20.308Z,97321.00
2018-07-03T21:26:01.807Z,97320.00
2018-07-03T21:28:43.733Z,97315.00
2018-07-03T21:31:29.558Z,97317.00
2018-07-03T21:34:14.985Z,97317.00
2018-07-03T21:36:56.604Z,97309.00
2018-07-03T21:39:40.013Z,97320.00
2018-07-03T21:42:22.947Z,97310.00
2018-07-03T21:45:05.141Z,97317.00
2018-07-03T21:47:46.919Z,97321.00
2018-07-03T21:50:28.647Z,97313.00
2018-07-03T21:53:16.479Z,97316.00
2018-07-03T21:55:58.006Z,97314.00
2018-07-03T21:58:39.417Z,97322.00
2018-07-03T22:01:21.866Z,97312.00
2018-07-03T22:04:03.680Z,97322.00
2018-07-03T22:06:45.209Z,97320.00
2018-07-03T22:09:27.230Z,97319.00
2018-07-03T22:12:10.063Z,97310.00
2018-07-03T22:14:52.118Z,97304.00
2018-07-03T22:17:34.482Z,97312.00
2018-07-03T22:20:16.486Z,97310.00
2018-07-03T22:22:58.202Z,97307.00
2018-07-03T22:25:39.992Z,97317.00
2018-07-03T22:28:23.009Z,97309.00
2018-07-03T22:31:04.729Z,97316.00
2018-07-03T22:33:46.162Z,97325.00
2018-07-03T22:36:28.505Z,97312.00
2018-07-03T22:39:10.694Z,97313.00
2018-07-03T22:41:53.796Z,97320.00
2018-07-03T22:44:35.648Z,97307.00
2018-07-03T22:47:18.339Z,97304.00
2018-07-03T22:49:59.949Z,97294.00
2018-07-03T22:52:41.360Z,97298.00
2018-07-03T22:55:23.929Z,97302.00
2018-07-03T22:58:05.388Z,97299.00
2018-07-03T23:00:46.931Z,97296.00
2018-07-03T23:03:29.104Z,97296.00
2018-07-03T23:06:11.013Z,97300.00
2018-07-03T23:08:53.698Z,97293.00
2018-07-03T23:11:35.817Z,97306.00
2018-07-03T23:14:17.822Z,97295.00
2018-07-03T23:16:59.693Z,97299.00
2018-07-03T23:19:42.236Z,97289.00
2018-07-03T23:22:25.268Z,97294.00
2018-07-03T23:25:06.729Z,97296.00
2018-07-03T23:27:48.291Z,97292.00
2018-07-03T23:30:30.492Z,97285.00
2018-07-03T23:33:15.556Z,97283.00
2018-07-03T23:35:58.668Z,97276.00
2018-07-03T23:38:40.132Z,97271.00
2018-07-03T23:41:22.040Z,97278.00
2018-07-03T23:44:03.449Z,97271.00
2018-07-03T23:47:02.821Z,97271.00
2018-07-03T23:50:07.797Z,97271.00
2018-07-03T23:53:12.511Z,97277.00
2018-07-03T23:56:16.912Z,97276.00
2018-07-03T23:59:22.097Z,97269.00
